sensor_id;sensor_type;location;lat;lon;timestamp;temperature;humidity
23723;DHT22;12042;52.136;5.584;2023-03-05T00:02:17;5.50;99.90
23723;DHT22;12042;52.136;5.584;2023-03-05T00:04:43;5.50;99.90
23723;DHT22;12042;52.136;5.584;2023-03-05T00:07:09;5.50;99.90
23723;DHT22;12042;52.136;5.584;2023-03-05T00:09:37;5.50;99.90
23723;DHT22;12042;52.136;5.584;2023-03-05T00:12:03;5.50;99.90
23723;DHT22;12042;52.136;5.584;2023-03-05T00:14:28;5.50;99.90
23723;DHT22;12042;52.136;5.584;2023-03-05T00:16:54;5.50;99.90
23723;DHT22;12042;52.136;5.584;2023-03-05T00:19:19;5.50;99.90
23723;DHT22;12042;52.136;5.584;2023-03-05T00:21:45;5.50;99.90
23723;DHT22;12042;52.136;5.584;2023-03-05T00:24:14;5.50;99.90
23723;DHT22;12042;52.136;5.584;2023-03-05T00:26:41;5.50;99.90
23723;DHT22;12042;52.136;5.584;2023-03-05T00:29:07;5.50;99.90
23723;DHT22;12042;52.136;5.584;2023-03-05T00:31:34;5.50;99.90
23723;DHT22;12042;52.136;5.584;2023-03-05T00:34:09;5.50;99.90
23723;DHT22;12042;52.136;5.584;2023-03-05T00:36:42;5.50;99.90
23723;DHT22;12042;52.136;5.584;2023-03-05T00:39:08;5.50;99.90
23723;DHT22;12042;52.136;5.584;2023-03-05T00:41:34;5.50;99.90
23723;DHT22;12042;52.136;5.584;2023-03-05T00:44:00;5.50;99.90
23723;DHT22;12042;52.136;5.584;2023-03-05T00:46:25;5.40;99.90
23723;DHT22;12042;52.136;5.584;2023-03-05T00:48:52;5.40;99.90
23723;DHT22;12042;52.136;5.584;2023-03-05T00:51:18;5.40;99.90
23723;DHT22;12042;52.136;5.584;2023-03-05T00:53:44;5.40;99.90
23723;DHT22;12042;52.136;5.584;2023-03-05T00:56:10;5.50;99.90
23723;DHT22;12042;52.136;5.584;2023-03-05T00:58:35;5.40;99.90
23723;DHT22;12042;52.136;5.584;2023-03-05T01:01:01;5.50;99.90
23723;DHT22;12042;52.136;5.584;2023-03-05T01:03:28;5.50;99.90
23723;DHT22;12042;52.136;5.584;2023-03-05T01:05:55;5.50;99.90
23723;DHT22;12042;52.136;5.584;2023-03-05T01:08:20;5.50;99.90
23723;DHT22;12042;52.136;5.584;2023-03-05T01:10:46;5.50;99.90
23723;DHT22;12042;52.136;5.584;2023-03-05T01:13:12;5.50;99.90
23723;DHT22;12042;52.136;5.584;2023-03-05T01:15:38;5.50;99.90
23723;DHT22;12042;52.136;5.584;2023-03-05T01:18:04;5.50;99.90
23723;DHT22;12042;52.136;5.584;2023-03-05T01:20:29;5.50;99.90
23723;DHT22;12042;52.136;5.584;2023-03-05T01:22:55;5.40;99.90
23723;DHT22;12042;52.136;5.584;2023-03-05T01:25:23;5.40;99.90
23723;DHT22;12042;52.136;5.584;2023-03-05T01:27:49;5.40;99.90
23723;DHT22;12042;52.136;5.584;2023-03-05T01:30:15;5.40;99.90
23723;DHT22;12042;52.136;5.584;2023-03-05T01:32:42;5.30;99.90
23723;DHT22;12042;52.136;5.584;2023-03-05T01:35:09;5.30;99.90
23723;DHT22;12042;52.136;5.584;2023-03-05T01:37:35;5.30;99.90
23723;DHT22;12042;52.136;5.584;2023-03-05T01:40:01;5.30;99.90
23723;DHT22;12042;52.136;5.584;2023-03-05T01:42:26;5.30;99.90
23723;DHT22;12042;52.136;5.584;2023-03-05T01:45:11;5.20;99.90
23723;DHT22;12042;52.136;5.584;2023-03-05T01:47:38;5.20;99.90
23723;DHT22;12042;52.136;5.584;2023-03-05T01:50:05;5.10;99.90
23723;DHT22;12042;52.136;5.584;2023-03-05T01:52:32;5.20;99.90
23723;DHT22;12042;52.136;5.584;2023-03-05T01:55:07;5.20;99.90
23723;DHT22;12042;52.136;5.584;2023-03-05T01:57:43;5.20;99.90
23723;DHT22;12042;52.136;5.584;2023-03-05T02:00:15;5.20;99.90
23723;DHT22;12042;52.136;5.584;2023-03-05T02:02:47;5.10;99.90
23723;DHT22;12042;52.136;5.584;2023-03-05T02:05:18;5.10;99.90
23723;DHT22;12042;52.136;5.584;2023-03-05T02:07:53;5.00;99.90
23723;DHT22;12042;52.136;5.584;2023-03-05T02:10:21;5.10;99.90
23723;DHT22;12042;52.136;5.584;2023-03-05T02:12:48;5.00;99.90
23723;DHT22;12042;52.136;5.584;2023-03-05T02:15:15;5.00;99.90
23723;DHT22;12042;52.136;5.584;2023-03-05T02:17:41;4.90;99.90
23723;DHT22;12042;52.136;5.584;2023-03-05T02:20:16;4.90;99.90
23723;DHT22;12042;52.136;5.584;2023-03-05T02:22:42;4.90;99.90
23723;DHT22;12042;52.136;5.584;2023-03-05T02:30:21;4.80;99.90
23723;DHT22;12042;52.136;5.584;2023-03-05T02:32:47;4.90;99.90
23723;DHT22;12042;52.136;5.584;2023-03-05T02:35:13;4.90;99.90
23723;DHT22;12042;52.136;5.584;2023-03-05T02:37:38;4.90;99.90
23723;DHT22;12042;52.136;5.584;2023-03-05T02:40:04;4.90;99.90
23723;DHT22;12042;52.136;5.584;2023-03-05T02:42:30;4.80;99.90
23723;DHT22;12042;52.136;5.584;2023-03-05T02:44:59;4.90;99.90
23723;DHT22;12042;52.136;5.584;2023-03-05T02:47:25;4.80;99.90
23723;DHT22;12042;52.136;5.584;2023-03-05T02:49:52;4.80;99.90
23723;DHT22;12042;52.136;5.584;2023-03-05T02:52:17;4.90;99.90
23723;DHT22;12042;52.136;5.584;2023-03-05T02:54:43;4.80;99.90
23723;DHT22;12042;52.136;5.584;2023-03-05T02:57:09;4.80;99.90
23723;DHT22;12042;52.136;5.584;2023-03-05T02:59:34;4.80;99.90
23723;DHT22;12042;52.136;5.584;2023-03-05T03:02:01;4.80;99.90
23723;DHT22;12042;52.136;5.584;2023-03-05T03:04:27;4.80;99.90
23723;DHT22;12042;52.136;5.584;2023-03-05T03:06:52;4.80;99.90
23723;DHT22;12042;52.136;5.584;2023-03-05T03:09:18;4.80;99.90
23723;DHT22;12042;52.136;5.584;2023-03-05T03:11:43;4.80;99.90
23723;DHT22;12042;52.136;5.584;2023-03-05T03:14:09;4.80;99.90
23723;DHT22;12042;52.136;5.584;2023-03-05T03:16:34;4.80;99.90
23723;DHT22;12042;52.136;5.584;2023-03-05T03:19:00;4.80;99.90
23723;DHT22;12042;52.136;5.584;2023-03-05T03:21:26;4.80;99.90
23723;DHT22;12042;52.136;5.584;2023-03-05T03:23:52;4.70;99.90
23723;DHT22;12042;52.136;5.584;2023-03-05T03:26:18;4.70;99.90
23723;DHT22;12042;52.136;5.584;2023-03-05T03:28:44;4.70;99.90
23723;DHT22;12042;52.136;5.584;2023-03-05T03:31:10;4.70;99.90
23723;DHT22;12042;52.136;5.584;2023-03-05T03:33:36;4.70;99.90
23723;DHT22;12042;52.136;5.584;2023-03-05T03:36:03;4.70;99.90
23723;DHT22;12042;52.136;5.584;2023-03-05T03:38:28;4.70;99.90
23723;DHT22;12042;52.136;5.584;2023-03-05T03:40:54;4.70;99.90
23723;DHT22;12042;52.136;5.584;2023-03-05T03:43:20;4.70;99.90
23723;DHT22;12042;52.136;5.584;2023-03-05T03:45:45;4.70;99.90
23723;DHT22;12042;52.136;5.584;2023-03-05T03:48:11;4.70;99.90
23723;DHT22;12042;52.136;5.584;2023-03-05T03:50:40;4.60;99.90
23723;DHT22;12042;52.136;5.584;2023-03-05T03:53:07;4.60;99.90
23723;DHT22;12042;52.136;5.584;2023-03-05T03:55:33;4.60;99.90
23723;DHT22;12042;52.136;5.584;2023-03-05T03:57:59;4.60;99.90
23723;DHT22;12042;52.136;5.584;2023-03-05T04:00:25;4.60;99.90
23723;DHT22;12042;52.136;5.584;2023-03-05T04:02:51;4.60;99.90
23723;DHT22;12042;52.136;5.584;2023-03-05T04:05:16;4.60;99.90
23723;DHT22;12042;52.136;5.584;2023-03-05T04:07:42;4.60;99.90
23723;DHT22;12042;52.136;5.584;2023-03-05T04:10:10;4.60;99.90
23723;DHT22;12042;52.136;5.584;2023-03-05T04:12:36;4.60;99.90
23723;DHT22;12042;52.136;5.584;2023-03-05T04:15:02;4.60;99.90
23723;DHT22;12042;52.136;5.584;2023-03-05T04:17:28;4.60;99.90
23723;DHT22;12042;52.136;5.584;2023-03-05T04:19:53;4.60;99.90
23723;DHT22;12042;52.136;5.584;2023-03-05T04:22:19;4.60;99.90
23723;DHT22;12042;52.136;5.584;2023-03-05T04:24:44;4.50;99.90
23723;DHT22;12042;52.136;5.584;2023-03-05T04:27:10;4.50;99.90
23723;DHT22;12042;52.136;5.584;2023-03-05T04:29:36;4.50;99.90
23723;DHT22;12042;52.136;5.584;2023-03-05T04:32:02;4.50;99.90
23723;DHT22;12042;52.136;5.584;2023-03-05T04:34:28;4.50;99.90
23723;DHT22;12042;52.136;5.584;2023-03-05T04:36:53;4.50;99.90
23723;DHT22;12042;52.136;5.584;2023-03-05T04:39:19;4.60;99.90
23723;DHT22;12042;52.136;5.584;2023-03-05T04:41:48;4.60;99.90
23723;DHT22;12042;52.136;5.584;2023-03-05T04:44:13;4.60;99.90
23723;DHT22;12042;52.136;5.584;2023-03-05T04:46:39;4.70;99.90
23723;DHT22;12042;52.136;5.584;2023-03-05T04:49:05;4.70;99.90
23723;DHT22;12042;52.136;5.584;2023-03-05T04:51:30;4.70;99.90
23723;DHT22;12042;52.136;5.584;2023-03-05T04:53:56;4.70;99.90
23723;DHT22;12042;52.136;5.584;2023-03-05T04:56:22;4.70;99.90
23723;DHT22;12042;52.136;5.584;2023-03-05T04:58:47;4.70;99.90
23723;DHT22;12042;52.136;5.584;2023-03-05T05:01:13;4.70;99.90
23723;DHT22;12042;52.136;5.584;2023-03-05T05:03:39;4.70;99.90
23723;DHT22;12042;52.136;5.584;2023-03-05T05:06:05;4.70;99.90
23723;DHT22;12042;52.136;5.584;2023-03-05T05:08:31;4.70;99.90
23723;DHT22;12042;52.136;5.584;2023-03-05T05:11:02;4.60;99.90
23723;DHT22;12042;52.136;5.584;2023-03-05T05:13:29;4.60;99.90
23723;DHT22;12042;52.136;5.584;2023-03-05T05:15:55;4.60;99.90
23723;DHT22;12042;52.136;5.584;2023-03-05T05:18:20;4.60;99.90
23723;DHT22;12042;52.136;5.584;2023-03-05T05:20:47;4.50;99.90
23723;DHT22;12042;52.136;5.584;2023-03-05T05:23:13;4.50;99.90
23723;DHT22;12042;52.136;5.584;2023-03-05T05:25:38;4.50;99.90
23723;DHT22;12042;52.136;5.584;2023-03-05T05:28:04;4.40;99.90
23723;DHT22;12042;52.136;5.584;2023-03-05T05:30:30;4.50;99.90
23723;DHT22;12042;52.136;5.584;2023-03-05T05:32:56;4.50;99.90
23723;DHT22;12042;52.136;5.584;2023-03-05T05:35:21;4.50;99.90
23723;DHT22;12042;52.136;5.584;2023-03-05T05:37:47;4.40;99.90
23723;DHT22;12042;52.136;5.584;2023-03-05T05:40:12;4.40;99.90
23723;DHT22;12042;52.136;5.584;2023-03-05T05:42:38;4.40;99.90
23723;DHT22;12042;52.136;5.584;2023-03-05T05:45:04;4.40;99.90
23723;DHT22;12042;52.136;5.584;2023-03-05T05:47:30;4.40;99.90
23723;DHT22;12042;52.136;5.584;2023-03-05T05:49:56;4.40;99.90
23723;DHT22;12042;52.136;5.584;2023-03-05T05:52:21;4.40;99.90
23723;DHT22;12042;52.136;5.584;2023-03-05T05:54:47;4.40;99.90
23723;DHT22;12042;52.136;5.584;2023-03-05T05:57:14;4.40;99.90
23723;DHT22;12042;52.136;5.584;2023-03-05T05:59:39;4.40;99.90
23723;DHT22;12042;52.136;5.584;2023-03-05T06:02:06;4.40;99.90
23723;DHT22;12042;52.136;5.584;2023-03-05T06:04:35;4.40;99.90
23723;DHT22;12042;52.136;5.584;2023-03-05T06:07:01;4.40;99.90
23723;DHT22;12042;52.136;5.584;2023-03-05T06:09:27;4.30;99.90
23723;DHT22;12042;52.136;5.584;2023-03-05T06:11:53;4.30;99.90
23723;DHT22;12042;52.136;5.584;2023-03-05T06:14:19;4.30;99.90
23723;DHT22;12042;52.136;5.584;2023-03-05T06:16:44;4.40;99.90
23723;DHT22;12042;52.136;5.584;2023-03-05T06:19:11;4.30;99.90
23723;DHT22;12042;52.136;5.584;2023-03-05T06:21:37;4.30;99.90
23723;DHT22;12042;52.136;5.584;2023-03-05T06:24:03;4.30;99.90
23723;DHT22;12042;52.136;5.584;2023-03-05T06:26:29;4.20;99.90
23723;DHT22;12042;52.136;5.584;2023-03-05T06:28:54;4.20;99.90
23723;DHT22;12042;52.136;5.584;2023-03-05T06:31:25;4.20;99.90
23723;DHT22;12042;52.136;5.584;2023-03-05T06:33:53;4.20;99.90
23723;DHT22;12042;52.136;5.584;2023-03-05T06:36:20;4.20;99.90
23723;DHT22;12042;52.136;5.584;2023-03-05T06:38:46;4.30;99.90
23723;DHT22;12042;52.136;5.584;2023-03-05T06:41:15;4.30;99.90
23723;DHT22;12042;52.136;5.584;2023-03-05T06:43:42;4.30;99.90
23723;DHT22;12042;52.136;5.584;2023-03-05T06:46:17;4.20;99.90
23723;DHT22;12042;52.136;5.584;2023-03-05T06:48:43;4.20;99.90
23723;DHT22;12042;52.136;5.584;2023-03-05T06:51:26;4.20;99.90
23723;DHT22;12042;52.136;5.584;2023-03-05T06:53:52;4.30;99.90
23723;DHT22;12042;52.136;5.584;2023-03-05T06:56:19;4.30;99.90
23723;DHT22;12042;52.136;5.584;2023-03-05T06:58:46;4.30;99.90
23723;DHT22;12042;52.136;5.584;2023-03-05T07:01:13;4.30;99.90
23723;DHT22;12042;52.136;5.584;2023-03-05T07:03:40;4.30;99.90
23723;DHT22;12042;52.136;5.584;2023-03-05T07:06:08;4.40;99.90
23723;DHT22;12042;52.136;5.584;2023-03-05T07:08:34;4.40;99.90
23723;DHT22;12042;52.136;5.584;2023-03-05T07:11:00;4.40;99.90
23723;DHT22;12042;52.136;5.584;2023-03-05T07:13:26;4.50;99.90
23723;DHT22;12042;52.136;5.584;2023-03-05T07:15:53;4.50;99.90
23723;DHT22;12042;52.136;5.584;2023-03-05T07:18:19;4.50;99.90
23723;DHT22;12042;52.136;5.584;2023-03-05T07:20:44;4.50;99.90
23723;DHT22;12042;52.136;5.584;2023-03-05T07:23:10;4.50;99.90
23723;DHT22;12042;52.136;5.584;2023-03-05T07:25:36;4.60;99.90
23723;DHT22;12042;52.136;5.584;2023-03-05T07:28:03;4.60;99.90
23723;DHT22;12042;52.136;5.584;2023-03-05T07:30:30;4.60;99.90
23723;DHT22;12042;52.136;5.584;2023-03-05T07:32:56;4.70;99.90
23723;DHT22;12042;52.136;5.584;2023-03-05T07:35:21;4.70;99.90
23723;DHT22;12042;52.136;5.584;2023-03-05T07:37:48;4.70;99.90
23723;DHT22;12042;52.136;5.584;2023-03-05T07:40:14;4.70;99.90
23723;DHT22;12042;52.136;5.584;2023-03-05T07:42:40;4.70;99.90
23723;DHT22;12042;52.136;5.584;2023-03-05T07:45:06;4.70;99.90
23723;DHT22;12042;52.136;5.584;2023-03-05T07:47:32;4.70;99.90
23723;DHT22;12042;52.136;5.584;2023-03-05T07:49:57;4.70;99.90
23723;DHT22;12042;52.136;5.584;2023-03-05T07:52:23;4.70;99.90
23723;DHT22;12042;52.136;5.584;2023-03-05T07:54:48;4.80;99.90
23723;DHT22;12042;52.136;5.584;2023-03-05T07:57:14;4.80;99.90
23723;DHT22;12042;52.136;5.584;2023-03-05T07:59:40;4.80;99.90
23723;DHT22;12042;52.136;5.584;2023-03-05T08:02:06;4.80;99.90
23723;DHT22;12042;52.136;5.584;2023-03-05T08:04:31;4.80;99.90
23723;DHT22;12042;52.136;5.584;2023-03-05T08:06:58;4.80;99.90
23723;DHT22;12042;52.136;5.584;2023-03-05T08:09:23;4.90;99.90
23723;DHT22;12042;52.136;5.584;2023-03-05T08:11:49;4.90;99.90
23723;DHT22;12042;52.136;5.584;2023-03-05T08:14:15;4.90;99.90
23723;DHT22;12042;52.136;5.584;2023-03-05T08:16:41;5.00;99.90
23723;DHT22;12042;52.136;5.584;2023-03-05T08:19:06;5.00;99.90
23723;DHT22;12042;52.136;5.584;2023-03-05T08:21:35;5.10;99.90
23723;DHT22;12042;52.136;5.584;2023-03-05T08:24:06;5.10;99.90
23723;DHT22;12042;52.136;5.584;2023-03-05T08:26:34;5.10;99.90
23723;DHT22;12042;52.136;5.584;2023-03-05T08:28:59;5.10;99.90
23723;DHT22;12042;52.136;5.584;2023-03-05T08:31:28;5.20;99.90
23723;DHT22;12042;52.136;5.584;2023-03-05T08:33:56;5.20;99.90
23723;DHT22;12042;52.136;5.584;2023-03-05T08:36:22;5.20;99.90
23723;DHT22;12042;52.136;5.584;2023-03-05T08:38:48;5.20;99.90
23723;DHT22;12042;52.136;5.584;2023-03-05T08:41:16;5.30;99.90
23723;DHT22;12042;52.136;5.584;2023-03-05T08:43:42;5.40;99.90
23723;DHT22;12042;52.136;5.584;2023-03-05T08:46:10;5.50;99.90
23723;DHT22;12042;52.136;5.584;2023-03-05T08:48:36;5.60;99.90
23723;DHT22;12042;52.136;5.584;2023-03-05T08:51:09;5.70;99.90
23723;DHT22;12042;52.136;5.584;2023-03-05T08:53:35;5.70;99.90
23723;DHT22;12042;52.136;5.584;2023-03-05T08:56:01;5.80;99.90
23723;DHT22;12042;52.136;5.584;2023-03-05T08:58:27;5.80;99.90
23723;DHT22;12042;52.136;5.584;2023-03-05T09:00:52;5.80;99.90
23723;DHT22;12042;52.136;5.584;2023-03-05T09:03:18;5.80;99.90
23723;DHT22;12042;52.136;5.584;2023-03-05T09:05:44;5.90;99.90
23723;DHT22;12042;52.136;5.584;2023-03-05T09:08:10;5.80;99.90
23723;DHT22;12042;52.136;5.584;2023-03-05T09:10:36;5.90;99.90
23723;DHT22;12042;52.136;5.584;2023-03-05T09:13:01;5.90;99.90
23723;DHT22;12042;52.136;5.584;2023-03-05T09:15:30;5.90;99.90
23723;DHT22;12042;52.136;5.584;2023-03-05T09:17:56;6.00;99.90
23723;DHT22;12042;52.136;5.584;2023-03-05T09:20:22;6.00;99.90
23723;DHT22;12042;52.136;5.584;2023-03-05T09:22:49;6.10;99.90
23723;DHT22;12042;52.136;5.584;2023-03-05T09:25:14;6.10;99.90
23723;DHT22;12042;52.136;5.584;2023-03-05T09:27:40;6.10;99.90
23723;DHT22;12042;52.136;5.584;2023-03-05T09:30:06;6.20;99.90
23723;DHT22;12042;52.136;5.584;2023-03-05T09:32:32;6.20;99.90
23723;DHT22;12042;52.136;5.584;2023-03-05T09:34:57;6.20;99.90
23723;DHT22;12042;52.136;5.584;2023-03-05T09:37:23;6.20;99.90
23723;DHT22;12042;52.136;5.584;2023-03-05T09:39:49;6.10;99.90
23723;DHT22;12042;52.136;5.584;2023-03-05T09:42:26;6.20;99.90
23723;DHT22;12042;52.136;5.584;2023-03-05T09:45:22;6.20;99.90
23723;DHT22;12042;52.136;5.584;2023-03-05T09:48:16;6.20;99.90
23723;DHT22;12042;52.136;5.584;2023-03-05T09:50:45;6.20;99.90
23723;DHT22;12042;52.136;5.584;2023-03-05T09:53:46;6.20;99.90
23723;DHT22;12042;52.136;5.584;2023-03-05T09:56:22;6.30;99.90
23723;DHT22;12042;52.136;5.584;2023-03-05T09:58:51;6.40;99.90
23723;DHT22;12042;52.136;5.584;2023-03-05T10:01:35;6.40;99.90
23723;DHT22;12042;52.136;5.584;2023-03-05T10:04:09;6.40;99.90
23723;DHT22;12042;52.136;5.584;2023-03-05T10:09:24;6.60;99.90
23723;DHT22;12042;52.136;5.584;2023-03-05T10:11:53;6.60;99.90
23723;DHT22;12042;52.136;5.584;2023-03-05T10:14:25;6.70;99.90
23723;DHT22;12042;52.136;5.584;2023-03-05T10:17:20;6.70;99.90
23723;DHT22;12042;52.136;5.584;2023-03-05T10:22:25;6.80;99.90
23723;DHT22;12042;52.136;5.584;2023-03-05T10:46:14;7.00;99.90
23723;DHT22;12042;52.136;5.584;2023-03-05T10:51:15;6.90;99.90
23723;DHT22;12042;52.136;5.584;2023-03-05T10:53:54;7.00;99.90
23723;DHT22;12042;52.136;5.584;2023-03-05T10:56:22;7.10;99.90
23723;DHT22;12042;52.136;5.584;2023-03-05T10:58:48;7.20;99.90
23723;DHT22;12042;52.136;5.584;2023-03-05T11:01:25;7.20;99.90
23723;DHT22;12042;52.136;5.584;2023-03-05T11:04:04;7.30;99.90
23723;DHT22;12042;52.136;5.584;2023-03-05T11:09:21;7.30;99.90
23723;DHT22;12042;52.136;5.584;2023-03-05T11:14:27;7.40;99.90
23723;DHT22;12042;52.136;5.584;2023-03-05T11:16:59;7.50;99.90
23723;DHT22;12042;52.136;5.584;2023-03-05T11:19:30;7.50;99.90
23723;DHT22;12042;52.136;5.584;2023-03-05T11:24:38;7.90;99.90
23723;DHT22;12042;52.136;5.584;2023-03-05T11:27:35;8.00;99.90
23723;DHT22;12042;52.136;5.584;2023-03-05T11:30:02;8.10;99.90
23723;DHT22;12042;52.136;5.584;2023-03-05T11:32:28;8.30;99.90
23723;DHT22;12042;52.136;5.584;2023-03-05T11:34:55;8.40;99.90
23723;DHT22;12042;52.136;5.584;2023-03-05T11:37:31;8.40;99.90
23723;DHT22;12042;52.136;5.584;2023-03-05T11:42:37;8.20;99.90
23723;DHT22;12042;52.136;5.584;2023-03-05T11:45:05;8.10;99.90
23723;DHT22;12042;52.136;5.584;2023-03-05T11:50:09;8.20;99.90
23723;DHT22;12042;52.136;5.584;2023-03-05T11:53:02;8.20;99.90
23723;DHT22;12042;52.136;5.584;2023-03-05T11:55:51;8.20;99.90
23723;DHT22;12042;52.136;5.584;2023-03-05T12:00:47;8.20;99.90
23723;DHT22;12042;52.136;5.584;2023-03-05T12:03:16;8.20;99.90
23723;DHT22;12042;52.136;5.584;2023-03-05T12:05:52;8.30;99.90
23723;DHT22;12042;52.136;5.584;2023-03-05T12:08:23;8.20;99.90
23723;DHT22;12042;52.136;5.584;2023-03-05T12:10:50;8.30;99.90
23723;DHT22;12042;52.136;5.584;2023-03-05T12:13:28;8.40;99.90
23723;DHT22;12042;52.136;5.584;2023-03-05T12:21:56;8.10;99.90
23723;DHT22;12042;52.136;5.584;2023-03-05T12:29:49;8.20;99.90
23723;DHT22;12042;52.136;5.584;2023-03-05T12:47:36;8.10;99.90
23723;DHT22;12042;52.136;5.584;2023-03-05T12:50:03;8.20;99.90
23723;DHT22;12042;52.136;5.584;2023-03-05T12:52:31;8.20;99.90
23723;DHT22;12042;52.136;5.584;2023-03-05T12:55:22;8.40;99.90
23723;DHT22;12042;52.136;5.584;2023-03-05T12:58:02;8.40;99.90
23723;DHT22;12042;52.136;5.584;2023-03-05T13:03:31;8.90;99.90
23723;DHT22;12042;52.136;5.584;2023-03-05T13:05:59;9.10;99.90
23723;DHT22;12042;52.136;5.584;2023-03-05T13:08:33;9.10;99.90
23723;DHT22;12042;52.136;5.584;2023-03-05T13:11:17;8.90;99.90
23723;DHT22;12042;52.136;5.584;2023-03-05T13:13:46;8.90;99.90
23723;DHT22;12042;52.136;5.584;2023-03-05T13:16:18;8.80;99.90
23723;DHT22;12042;52.136;5.584;2023-03-05T13:18:46;8.70;99.90
23723;DHT22;12042;52.136;5.584;2023-03-05T13:21:15;8.60;99.90
23723;DHT22;12042;52.136;5.584;2023-03-05T13:23:53;8.50;99.90
23723;DHT22;12042;52.136;5.584;2023-03-05T13:26:38;8.40;99.90
23723;DHT22;12042;52.136;5.584;2023-03-05T13:29:13;8.60;99.90
23723;DHT22;12042;52.136;5.584;2023-03-05T13:34:33;8.70;99.90
23723;DHT22;12042;52.136;5.584;2023-03-05T13:37:17;8.80;99.90
23723;DHT22;12042;52.136;5.584;2023-03-05T13:40:12;8.90;99.90
23723;DHT22;12042;52.136;5.584;2023-03-05T13:42:39;9.00;99.90
23723;DHT22;12042;52.136;5.584;2023-03-05T13:50:27;9.50;99.90
23723;DHT22;12042;52.136;5.584;2023-03-05T13:52:54;9.50;99.90
23723;DHT22;12042;52.136;5.584;2023-03-05T13:55:20;9.10;99.90
23723;DHT22;12042;52.136;5.584;2023-03-05T13:57:48;9.10;99.90
23723;DHT22;12042;52.136;5.584;2023-03-05T14:00:35;9.20;99.90
23723;DHT22;12042;52.136;5.584;2023-03-05T14:03:09;9.20;99.90
23723;DHT22;12042;52.136;5.584;2023-03-05T14:05:36;9.20;99.90
23723;DHT22;12042;52.136;5.584;2023-03-05T14:08:19;9.20;99.90
23723;DHT22;12042;52.136;5.584;2023-03-05T14:10:45;9.20;99.90
23723;DHT22;12042;52.136;5.584;2023-03-05T14:13:16;9.10;99.90
23723;DHT22;12042;52.136;5.584;2023-03-05T14:15:42;9.10;99.90
23723;DHT22;12042;52.136;5.584;2023-03-05T14:20:56;8.90;99.90
23723;DHT22;12042;52.136;5.584;2023-03-05T14:26:22;8.80;99.90
23723;DHT22;12042;52.136;5.584;2023-03-05T14:29:01;8.90;99.90
23723;DHT22;12042;52.136;5.584;2023-03-05T14:31:29;8.90;99.90
23723;DHT22;12042;52.136;5.584;2023-03-05T14:34:03;9.00;99.90
23723;DHT22;12042;52.136;5.584;2023-03-05T14:36:30;9.00;99.90
23723;DHT22;12042;52.136;5.584;2023-03-05T14:38:56;8.90;99.90
23723;DHT22;12042;52.136;5.584;2023-03-05T14:41:36;8.90;99.90
23723;DHT22;12042;52.136;5.584;2023-03-05T14:44:14;8.80;99.90
23723;DHT22;12042;52.136;5.584;2023-03-05T14:46:41;8.60;99.90
23723;DHT22;12042;52.136;5.584;2023-03-05T14:49:07;8.60;99.90
23723;DHT22;12042;52.136;5.584;2023-03-05T14:51:40;8.50;99.90
23723;DHT22;12042;52.136;5.584;2023-03-05T14:54:17;8.40;99.90
23723;DHT22;12042;52.136;5.584;2023-03-05T14:56:43;8.30;99.90
23723;DHT22;12042;52.136;5.584;2023-03-05T14:59:08;8.30;99.90
23723;DHT22;12042;52.136;5.584;2023-03-05T15:01:34;8.30;99.90
23723;DHT22;12042;52.136;5.584;2023-03-05T15:03:59;8.20;99.90
23723;DHT22;12042;52.136;5.584;2023-03-05T15:06:33;8.00;99.90
23723;DHT22;12042;52.136;5.584;2023-03-05T15:09:01;7.90;99.90
23723;DHT22;12042;52.136;5.584;2023-03-05T15:11:28;7.90;99.90
23723;DHT22;12042;52.136;5.584;2023-03-05T15:13:54;7.80;99.90
23723;DHT22;12042;52.136;5.584;2023-03-05T15:16:21;7.70;99.90
23723;DHT22;12042;52.136;5.584;2023-03-05T15:18:47;7.70;99.90
23723;DHT22;12042;52.136;5.584;2023-03-05T15:21:13;7.60;99.90
23723;DHT22;12042;52.136;5.584;2023-03-05T15:23:38;7.60;99.90
23723;DHT22;12042;52.136;5.584;2023-03-05T15:26:07;7.60;99.90
23723;DHT22;12042;52.136;5.584;2023-03-05T15:28:34;7.50;99.90
23723;DHT22;12042;52.136;5.584;2023-03-05T15:31:00;7.40;99.90
23723;DHT22;12042;52.136;5.584;2023-03-05T15:33:27;7.40;99.90
23723;DHT22;12042;52.136;5.584;2023-03-05T15:35:53;7.40;99.90
23723;DHT22;12042;52.136;5.584;2023-03-05T15:38:19;7.40;99.90
23723;DHT22;12042;52.136;5.584;2023-03-05T15:40:44;7.40;99.90
23723;DHT22;12042;52.136;5.584;2023-03-05T15:43:11;7.50;99.90
23723;DHT22;12042;52.136;5.584;2023-03-05T15:45:37;7.50;99.90
23723;DHT22;12042;52.136;5.584;2023-03-05T15:48:03;7.60;99.90
23723;DHT22;12042;52.136;5.584;2023-03-05T15:50:28;7.60;99.90
23723;DHT22;12042;52.136;5.584;2023-03-05T15:52:54;7.60;99.90
23723;DHT22;12042;52.136;5.584;2023-03-05T15:55:20;7.60;99.90
23723;DHT22;12042;52.136;5.584;2023-03-05T15:57:47;7.50;99.90
23723;DHT22;12042;52.136;5.584;2023-03-05T16:00:17;7.50;99.90
23723;DHT22;12042;52.136;5.584;2023-03-05T16:02:43;7.40;99.90
23723;DHT22;12042;52.136;5.584;2023-03-05T16:05:09;7.50;99.90
23723;DHT22;12042;52.136;5.584;2023-03-05T16:07:36;7.50;99.90
23723;DHT22;12042;52.136;5.584;2023-03-05T16:10:03;7.50;99.90
23723;DHT22;12042;52.136;5.584;2023-03-05T16:12:35;7.50;99.90
23723;DHT22;12042;52.136;5.584;2023-03-05T16:15:07;7.40;99.90
23723;DHT22;12042;52.136;5.584;2023-03-05T16:17:33;7.30;99.90
23723;DHT22;12042;52.136;5.584;2023-03-05T16:19:58;7.30;99.90
23723;DHT22;12042;52.136;5.584;2023-03-05T16:22:24;7.30;99.90
23723;DHT22;12042;52.136;5.584;2023-03-05T16:24:50;7.30;99.90
23723;DHT22;12042;52.136;5.584;2023-03-05T16:27:15;7.30;99.90
23723;DHT22;12042;52.136;5.584;2023-03-05T16:29:41;7.30;99.90
23723;DHT22;12042;52.136;5.584;2023-03-05T16:32:07;7.20;99.90
23723;DHT22;12042;52.136;5.584;2023-03-05T16:34:33;7.20;99.90
23723;DHT22;12042;52.136;5.584;2023-03-05T16:36:59;7.20;99.90
23723;DHT22;12042;52.136;5.584;2023-03-05T16:39:28;7.20;99.90
23723;DHT22;12042;52.136;5.584;2023-03-05T16:41:54;7.20;99.90
23723;DHT22;12042;52.136;5.584;2023-03-05T16:44:20;7.20;99.90
23723;DHT22;12042;52.136;5.584;2023-03-05T16:46:45;7.20;99.90
23723;DHT22;12042;52.136;5.584;2023-03-05T16:49:18;7.20;99.90
23723;DHT22;12042;52.136;5.584;2023-03-05T16:51:45;7.20;99.90
23723;DHT22;12042;52.136;5.584;2023-03-05T16:54:10;7.20;99.90
23723;DHT22;12042;52.136;5.584;2023-03-05T16:56:36;7.20;99.90
23723;DHT22;12042;52.136;5.584;2023-03-05T16:59:01;7.20;99.90
23723;DHT22;12042;52.136;5.584;2023-03-05T17:01:27;7.20;99.90
23723;DHT22;12042;52.136;5.584;2023-03-05T17:03:56;7.20;99.90
23723;DHT22;12042;52.136;5.584;2023-03-05T17:06:24;7.20;99.90
23723;DHT22;12042;52.136;5.584;2023-03-05T17:08:52;7.20;99.90
23723;DHT22;12042;52.136;5.584;2023-03-05T17:11:19;7.20;99.90
23723;DHT22;12042;52.136;5.584;2023-03-05T17:13:45;7.20;99.90
23723;DHT22;12042;52.136;5.584;2023-03-05T17:16:13;7.20;99.90
23723;DHT22;12042;52.136;5.584;2023-03-05T17:18:39;7.20;99.90
23723;DHT22;12042;52.136;5.584;2023-03-05T17:21:06;7.10;99.90
23723;DHT22;12042;52.136;5.584;2023-03-05T17:23:36;7.00;99.90
23723;DHT22;12042;52.136;5.584;2023-03-05T17:26:05;7.00;99.90